sensor_id;sensor_type;location;lat;lon;timestamp;P1;P2;P0
42410;PMS5003;28056;51.112;0.984;2023-09-08T00:00:34;35;32;
42410;PMS5003;28056;51.112;0.984;2023-09-08T00:04:50;44;37;
42410;PMS5003;28056;51.112;0.984;2023-09-08T00:07:17;34;34;
42410;PMS5003;28056;51.112;0.984;2023-09-08T00:09:45;35;35;
42410;PMS5003;28056;51.112;0.984;2023-09-08T00:12:13;36;35;
42410;PMS5003;28056;51.112;0.984;2023-09-08T00:14:40;34;30;
42410;PMS5003;28056;51.112;0.984;2023-09-08T00:17:08;34;32;
42410;PMS5003;28056;51.112;0.984;2023-09-08T00:19:35;37;37;
42410;PMS5003;28056;51.112;0.984;2023-09-08T00:22:03;34;32;
42410;PMS5003;28056;51.112;0.984;2023-09-08T00:24:30;34;32;
42410;PMS5003;28056;51.112;0.984;2023-09-08T00:26:58;38;36;
42410;PMS5003;28056;51.112;0.984;2023-09-08T00:29:25;44;41;
42410;PMS5003;28056;51.112;0.984;2023-09-08T00:31:52;38;35;
42410;PMS5003;28056;51.112;0.984;2023-09-08T00:34:19;42;40;
42410;PMS5003;28056;51.112;0.984;2023-09-08T00:36:46;44;38;
42410;PMS5003;28056;51.112;0.984;2023-09-08T00:39:14;33;32;
42410;PMS5003;28056;51.112;0.984;2023-09-08T00:41:41;36;35;
42410;PMS5003;28056;51.112;0.984;2023-09-08T00:44:08;39;37;
42410;PMS5003;28056;51.112;0.984;2023-09-08T00:46:36;35;33;
42410;PMS5003;28056;51.112;0.984;2023-09-08T00:49:03;33;32;
42410;PMS5003;28056;51.112;0.984;2023-09-08T00:51:32;37;32;
42410;PMS5003;28056;51.112;0.984;2023-09-08T00:53:59;38;36;
42410;PMS5003;28056;51.112;0.984;2023-09-08T00:56:27;40;37;
42410;PMS5003;28056;51.112;0.984;2023-09-08T00:58:56;33;33;
42410;PMS5003;28056;51.112;0.984;2023-09-08T01:01:23;32;31;
42410;PMS5003;28056;51.112;0.984;2023-09-08T01:03:50;42;40;
42410;PMS5003;28056;51.112;0.984;2023-09-08T01:06:18;29;29;
42410;PMS5003;28056;51.112;0.984;2023-09-08T01:08:45;24;24;
42410;PMS5003;28056;51.112;0.984;2023-09-08T01:11:13;28;28;
42410;PMS5003;28056;51.112;0.984;2023-09-08T01:13:40;30;29;
42410;PMS5003;28056;51.112;0.984;2023-09-08T01:16:10;33;30;
42410;PMS5003;28056;51.112;0.984;2023-09-08T01:18:37;31;30;
42410;PMS5003;28056;51.112;0.984;2023-09-08T01:21:17;28;27;
42410;PMS5003;28056;51.112;0.984;2023-09-08T01:24:03;27;24;
42410;PMS5003;28056;51.112;0.984;2023-09-08T01:26:44;30;30;
42410;PMS5003;28056;51.112;0.984;2023-09-08T01:29:11;35;32;
42410;PMS5003;28056;51.112;0.984;2023-09-08T01:31:43;27;27;
42410;PMS5003;28056;51.112;0.984;2023-09-08T01:34:11;29;23;
42410;PMS5003;28056;51.112;0.984;2023-09-08T01:36:39;32;29;
42410;PMS5003;28056;51.112;0.984;2023-09-08T01:39:07;28;28;
42410;PMS5003;28056;51.112;0.984;2023-09-08T01:41:34;29;29;
42410;PMS5003;28056;51.112;0.984;2023-09-08T01:44:01;24;24;
42410;PMS5003;28056;51.112;0.984;2023-09-08T01:46:28;25;24;
42410;PMS5003;28056;51.112;0.984;2023-09-08T01:48:56;25;24;
42410;PMS5003;28056;51.112;0.984;2023-09-08T01:51:24;25;25;
42410;PMS5003;28056;51.112;0.984;2023-09-08T01:53:51;23;23;
42410;PMS5003;28056;51.112;0.984;2023-09-08T01:56:18;29;28;
42410;PMS5003;28056;51.112;0.984;2023-09-08T01:58:46;25;25;
42410;PMS5003;28056;51.112;0.984;2023-09-08T02:01:13;31;27;
42410;PMS5003;28056;51.112;0.984;2023-09-08T02:03:41;28;28;
42410;PMS5003;28056;51.112;0.984;2023-09-08T02:06:11;28;27;
42410;PMS5003;28056;51.112;0.984;2023-09-08T02:08:38;33;30;
42410;PMS5003;28056;51.112;0.984;2023-09-08T02:11:05;31;30;
42410;PMS5003;28056;51.112;0.984;2023-09-08T02:13:33;33;32;
42410;PMS5003;28056;51.112;0.984;2023-09-08T02:16:00;33;29;
42410;PMS5003;28056;51.112;0.984;2023-09-08T02:18:28;31;31;
42410;PMS5003;28056;51.112;0.984;2023-09-08T02:20:55;32;29;
42410;PMS5003;28056;51.112;0.984;2023-09-08T02:23:22;29;28;
42410;PMS5003;28056;51.112;0.984;2023-09-08T02:25:49;27;26;
42410;PMS5003;28056;51.112;0.984;2023-09-08T02:28:17;25;24;
42410;PMS5003;28056;51.112;0.984;2023-09-08T02:30:44;30;28;
42410;PMS5003;28056;51.112;0.984;2023-09-08T02:33:11;26;26;
42410;PMS5003;28056;51.112;0.984;2023-09-08T02:35:39;34;31;
42410;PMS5003;28056;51.112;0.984;2023-09-08T02:38:06;33;30;
42410;PMS5003;28056;51.112;0.984;2023-09-08T02:40:34;27;27;
42410;PMS5003;28056;51.112;0.984;2023-09-08T02:43:01;29;25;
42410;PMS5003;28056;51.112;0.984;2023-09-08T02:45:29;26;22;
42410;PMS5003;28056;51.112;0.984;2023-09-08T02:47:57;28;28;
42410;PMS5003;28056;51.112;0.984;2023-09-08T02:50:24;26;24;
42410;PMS5003;28056;51.112;0.984;2023-09-08T02:52:51;32;30;
42410;PMS5003;28056;51.112;0.984;2023-09-08T02:55:19;28;28;
42410;PMS5003;28056;51.112;0.984;2023-09-08T02:57:46;33;31;
42410;PMS5003;28056;51.112;0.984;2023-09-08T03:00:14;33;33;
42410;PMS5003;28056;51.112;0.984;2023-09-08T03:02:42;26;26;
42410;PMS5003;28056;51.112;0.984;2023-09-08T03:05:09;33;28;
42410;PMS5003;28056;51.112;0.984;2023-09-08T03:07:37;29;28;
42410;PMS5003;28056;51.112;0.984;2023-09-08T03:10:05;31;30;
42410;PMS5003;28056;51.112;0.984;2023-09-08T03:12:34;32;31;
42410;PMS5003;28056;51.112;0.984;2023-09-08T03:15:02;29;29;
42410;PMS5003;28056;51.112;0.984;2023-09-08T03:17:30;27;25;
42410;PMS5003;28056;51.112;0.984;2023-09-08T03:19:57;26;23;
42410;PMS5003;28056;51.112;0.984;2023-09-08T03:22:25;27;25;
42410;PMS5003;28056;51.112;0.984;2023-09-08T03:24:52;27;25;
42410;PMS5003;28056;51.112;0.984;2023-09-08T03:27:20;28;27;
42410;PMS5003;28056;51.112;0.984;2023-09-08T03:29:47;31;30;
42410;PMS5003;28056;51.112;0.984;2023-09-08T03:32:15;28;28;
42410;PMS5003;28056;51.112;0.984;2023-09-08T03:34:42;30;30;
42410;PMS5003;28056;51.112;0.984;2023-09-08T03:37:09;29;29;
42410;PMS5003;28056;51.112;0.984;2023-09-08T03:39:37;26;26;
42410;PMS5003;28056;51.112;0.984;2023-09-08T03:42:04;31;28;
42410;PMS5003;28056;51.112;0.984;2023-09-08T03:44:31;29;29;
42410;PMS5003;28056;51.112;0.984;2023-09-08T03:46:59;33;33;
42410;PMS5003;28056;51.112;0.984;2023-09-08T03:49:26;31;31;
42410;PMS5003;28056;51.112;0.984;2023-09-08T03:51:53;35;35;
42410;PMS5003;28056;51.112;0.984;2023-09-08T03:54:20;30;27;
42410;PMS5003;28056;51.112;0.984;2023-09-08T03:56:48;27;25;
42410;PMS5003;28056;51.112;0.984;2023-09-08T03:59:15;28;25;
42410;PMS5003;28056;51.112;0.984;2023-09-08T04:01:42;27;27;
42410;PMS5003;28056;51.112;0.984;2023-09-08T04:04:10;27;27;
42410;PMS5003;28056;51.112;0.984;2023-09-08T04:06:38;26;26;
42410;PMS5003;28056;51.112;0.984;2023-09-08T04:09:06;24;24;
42410;PMS5003;28056;51.112;0.984;2023-09-08T04:11:33;23;23;
42410;PMS5003;28056;51.112;0.984;2023-09-08T04:14:00;25;21;
42410;PMS5003;28056;51.112;0.984;2023-09-08T04:16:28;25;25;
42410;PMS5003;28056;51.112;0.984;2023-09-08T04:18:56;22;22;
42410;PMS5003;28056;51.112;0.984;2023-09-08T04:21:23;27;27;
42410;PMS5003;28056;51.112;0.984;2023-09-08T04:23:51;24;22;
42410;PMS5003;28056;51.112;0.984;2023-09-08T04:26:18;22;22;
42410;PMS5003;28056;51.112;0.984;2023-09-08T04:28:45;25;25;
42410;PMS5003;28056;51.112;0.984;2023-09-08T04:31:13;27;26;
42410;PMS5003;28056;51.112;0.984;2023-09-08T04:33:40;24;21;
42410;PMS5003;28056;51.112;0.984;2023-09-08T04:36:07;25;25;
42410;PMS5003;28056;51.112;0.984;2023-09-08T04:38:35;22;21;
42410;PMS5003;28056;51.112;0.984;2023-09-08T04:41:02;25;22;
42410;PMS5003;28056;51.112;0.984;2023-09-08T04:43:30;22;22;
42410;PMS5003;28056;51.112;0.984;2023-09-08T04:45:57;28;26;
42410;PMS5003;28056;51.112;0.984;2023-09-08T04:48:24;26;25;
42410;PMS5003;28056;51.112;0.984;2023-09-08T04:50:51;22;22;
42410;PMS5003;28056;51.112;0.984;2023-09-08T04:53:18;26;26;
42410;PMS5003;28056;51.112;0.984;2023-09-08T04:55:45;25;25;
42410;PMS5003;28056;51.112;0.984;2023-09-08T04:58:13;28;27;
42410;PMS5003;28056;51.112;0.984;2023-09-08T05:00:40;25;25;
42410;PMS5003;28056;51.112;0.984;2023-09-08T05:03:08;28;28;
42410;PMS5003;28056;51.112;0.984;2023-09-08T05:05:35;24;24;
42410;PMS5003;28056;51.112;0.984;2023-09-08T05:08:02;27;25;
42410;PMS5003;28056;51.112;0.984;2023-09-08T05:10:30;28;26;
42410;PMS5003;28056;51.112;0.984;2023-09-08T05:12:57;24;21;
42410;PMS5003;28056;51.112;0.984;2023-09-08T05:15:24;25;24;
42410;PMS5003;28056;51.112;0.984;2023-09-08T05:17:52;27;25;
42410;PMS5003;28056;51.112;0.984;2023-09-08T05:20:19;27;24;
42410;PMS5003;28056;51.112;0.984;2023-09-08T05:22:46;23;23;
42410;PMS5003;28056;51.112;0.984;2023-09-08T05:25:13;23;23;
42410;PMS5003;28056;51.112;0.984;2023-09-08T05:27:40;28;26;
42410;PMS5003;28056;51.112;0.984;2023-09-08T05:30:08;26;21;
42410;PMS5003;28056;51.112;0.984;2023-09-08T05:32:36;28;24;
42410;PMS5003;28056;51.112;0.984;2023-09-08T05:35:03;26;24;
42410;PMS5003;28056;51.112;0.984;2023-09-08T05:37:31;21;21;
42410;PMS5003;28056;51.112;0.984;2023-09-08T05:39:58;18;18;
42410;PMS5003;28056;51.112;0.984;2023-09-08T05:42:26;22;18;
42410;PMS5003;28056;51.112;0.984;2023-09-08T05:44:53;20;20;
42410;PMS5003;28056;51.112;0.984;2023-09-08T05:47:20;18;18;
42410;PMS5003;28056;51.112;0.984;2023-09-08T05:49:48;15;15;
42410;PMS5003;28056;51.112;0.984;2023-09-08T05:52:15;20;20;
42410;PMS5003;28056;51.112;0.984;2023-09-08T05:54:43;24;24;
42410;PMS5003;28056;51.112;0.984;2023-09-08T05:57:11;24;24;
42410;PMS5003;28056;51.112;0.984;2023-09-08T05:59:38;31;26;
42410;PMS5003;28056;51.112;0.984;2023-09-08T06:02:06;23;23;
42410;PMS5003;28056;51.112;0.984;2023-09-08T06:04:34;26;26;
42410;PMS5003;28056;51.112;0.984;2023-09-08T06:07:03;27;24;
42410;PMS5003;28056;51.112;0.984;2023-09-08T06:09:30;26;25;
42410;PMS5003;28056;51.112;0.984;2023-09-08T06:11:58;31;29;
42410;PMS5003;28056;51.112;0.984;2023-09-08T06:14:30;33;33;
42410;PMS5003;28056;51.112;0.984;2023-09-08T06:16:58;39;36;
42410;PMS5003;28056;51.112;0.984;2023-09-08T06:19:25;27;27;
42410;PMS5003;28056;51.112;0.984;2023-09-08T06:21:54;39;39;
42410;PMS5003;28056;51.112;0.984;2023-09-08T06:24:22;34;34;
42410;PMS5003;28056;51.112;0.984;2023-09-08T06:26:49;33;33;
42410;PMS5003;28056;51.112;0.984;2023-09-08T06:29:18;34;34;
42410;PMS5003;28056;51.112;0.984;2023-09-08T06:31:46;37;33;
42410;PMS5003;28056;51.112;0.984;2023-09-08T06:34:13;33;33;
42410;PMS5003;28056;51.112;0.984;2023-09-08T06:36:41;31;30;
42410;PMS5003;28056;51.112;0.984;2023-09-08T06:39:09;30;27;
42410;PMS5003;28056;51.112;0.984;2023-09-08T06:41:36;30;30;
42410;PMS5003;28056;51.112;0.984;2023-09-08T06:44:05;24;24;
42410;PMS5003;28056;51.112;0.984;2023-09-08T06:46:32;26;26;
42410;PMS5003;28056;51.112;0.984;2023-09-08T06:49:00;23;23;
42410;PMS5003;28056;51.112;0.984;2023-09-08T06:51:27;22;20;
42410;PMS5003;28056;51.112;0.984;2023-09-08T06:53:55;20;20;
42410;PMS5003;28056;51.112;0.984;2023-09-08T06:56:23;24;21;
42410;PMS5003;28056;51.112;0.984;2023-09-08T06:58:51;18;18;
42410;PMS5003;28056;51.112;0.984;2023-09-08T07:01:18;20;19;
42410;PMS5003;28056;51.112;0.984;2023-09-08T07:03:45;30;27;
42410;PMS5003;28056;51.112;0.984;2023-09-08T07:06:12;22;19;
42410;PMS5003;28056;51.112;0.984;2023-09-08T07:08:40;14;14;
42410;PMS5003;28056;51.112;0.984;2023-09-08T07:11:07;15;15;
42410;PMS5003;28056;51.112;0.984;2023-09-08T07:13:35;16;15;
42410;PMS5003;28056;51.112;0.984;2023-09-08T07:16:03;17;17;
42410;PMS5003;28056;51.112;0.984;2023-09-08T07:18:30;17;16;
42410;PMS5003;28056;51.112;0.984;2023-09-08T07:20:57;19;18;
42410;PMS5003;28056;51.112;0.984;2023-09-08T07:23:24;18;16;
42410;PMS5003;28056;51.112;0.984;2023-09-08T07:25:52;16;16;
42410;PMS5003;28056;51.112;0.984;2023-09-08T07:28:19;19;19;
42410;PMS5003;28056;51.112;0.984;2023-09-08T07:30:47;16;15;
42410;PMS5003;28056;51.112;0.984;2023-09-08T07:33:14;20;20;
42410;PMS5003;28056;51.112;0.984;2023-09-08T07:35:42;20;19;
42410;PMS5003;28056;51.112;0.984;2023-09-08T07:38:09;25;22;
42410;PMS5003;28056;51.112;0.984;2023-09-08T07:40:36;20;20;
42410;PMS5003;28056;51.112;0.984;2023-09-08T07:43:04;21;20;
42410;PMS5003;28056;51.112;0.984;2023-09-08T07:45:31;19;19;
42410;PMS5003;28056;51.112;0.984;2023-09-08T07:47:58;22;20;
42410;PMS5003;28056;51.112;0.984;2023-09-08T07:50:26;23;23;
42410;PMS5003;28056;51.112;0.984;2023-09-08T07:52:55;21;21;
42410;PMS5003;28056;51.112;0.984;2023-09-08T07:55:23;20;20;
42410;PMS5003;28056;51.112;0.984;2023-09-08T07:57:51;19;19;
42410;PMS5003;28056;51.112;0.984;2023-09-08T08:00:18;19;17;
42410;PMS5003;28056;51.112;0.984;2023-09-08T08:02:46;23;21;
42410;PMS5003;28056;51.112;0.984;2023-09-08T08:05:14;25;20;
42410;PMS5003;28056;51.112;0.984;2023-09-08T08:07:42;18;15;
42410;PMS5003;28056;51.112;0.984;2023-09-08T08:10:10;15;15;
42410;PMS5003;28056;51.112;0.984;2023-09-08T08:12:39;17;17;
42410;PMS5003;28056;51.112;0.984;2023-09-08T08:15:08;17;16;
42410;PMS5003;28056;51.112;0.984;2023-09-08T08:17:36;17;17;
42410;PMS5003;28056;51.112;0.984;2023-09-08T08:20:04;16;16;
42410;PMS5003;28056;51.112;0.984;2023-09-08T08:22:33;18;16;
42410;PMS5003;28056;51.112;0.984;2023-09-08T08:25:01;17;17;
42410;PMS5003;28056;51.112;0.984;2023-09-08T08:27:29;16;16;
42410;PMS5003;28056;51.112;0.984;2023-09-08T08:29:56;13;13;
42410;PMS5003;28056;51.112;0.984;2023-09-08T08:32:24;16;16;
42410;PMS5003;28056;51.112;0.984;2023-09-08T08:34:51;18;16;
42410;PMS5003;28056;51.112;0.984;2023-09-08T08:37:18;14;14;
42410;PMS5003;28056;51.112;0.984;2023-09-08T08:39:46;15;15;
42410;PMS5003;28056;51.112;0.984;2023-09-08T08:42:13;18;16;
42410;PMS5003;28056;51.112;0.984;2023-09-08T08:44:41;17;14;
42410;PMS5003;28056;51.112;0.984;2023-09-08T08:47:08;15;15;
42410;PMS5003;28056;51.112;0.984;2023-09-08T08:49:37;16;14;
42410;PMS5003;28056;51.112;0.984;2023-09-08T08:52:06;14;14;
42410;PMS5003;28056;51.112;0.984;2023-09-08T08:54:37;14;14;
42410;PMS5003;28056;51.112;0.984;2023-09-08T08:57:06;20;18;
42410;PMS5003;28056;51.112;0.984;2023-09-08T08:59:33;15;14;
42410;PMS5003;28056;51.112;0.984;2023-09-08T09:02:02;14;14;
42410;PMS5003;28056;51.112;0.984;2023-09-08T09:04:30;15;14;
42410;PMS5003;28056;51.112;0.984;2023-09-08T09:06:59;14;13;
42410;PMS5003;28056;51.112;0.984;2023-09-08T09:09:26;12;12;
42410;PMS5003;28056;51.112;0.984;2023-09-08T09:11:55;14;11;
42410;PMS5003;28056;51.112;0.984;2023-09-08T09:14:22;12;12;
42410;PMS5003;28056;51.112;0.984;2023-09-08T09:16:50;12;12;
42410;PMS5003;28056;51.112;0.984;2023-09-08T09:19:18;12;10;
42410;PMS5003;28056;51.112;0.984;2023-09-08T09:21:48;14;13;
42410;PMS5003;28056;51.112;0.984;2023-09-08T09:24:15;13;13;
42410;PMS5003;28056;51.112;0.984;2023-09-08T09:26:43;15;13;
42410;PMS5003;28056;51.112;0.984;2023-09-08T09:29:12;13;13;
42410;PMS5003;28056;51.112;0.984;2023-09-08T09:31:50;13;13;
42410;PMS5003;28056;51.112;0.984;2023-09-08T09:34:19;14;14;
42410;PMS5003;28056;51.112;0.984;2023-09-08T09:36:47;14;14;
42410;PMS5003;28056;51.112;0.984;2023-09-08T09:39:16;16;16;
42410;PMS5003;28056;51.112;0.984;2023-09-08T09:41:45;19;17;
42410;PMS5003;28056;51.112;0.984;2023-09-08T09:44:12;17;17;
42410;PMS5003;28056;51.112;0.984;2023-09-08T09:46:43;14;14;
42410;PMS5003;28056;51.112;0.984;2023-09-08T09:49:11;13;13;
42410;PMS5003;28056;51.112;0.984;2023-09-08T09:51:40;13;13;
42410;PMS5003;28056;51.112;0.984;2023-09-08T09:54:09;13;13;
42410;PMS5003;28056;51.112;0.984;2023-09-08T09:56:37;13;13;
42410;PMS5003;28056;51.112;0.984;2023-09-08T09:59:06;15;15;
42410;PMS5003;28056;51.112;0.984;2023-09-08T10:01:35;16;15;
42410;PMS5003;28056;51.112;0.984;2023-09-08T10:04:03;12;12;
42410;PMS5003;28056;51.112;0.984;2023-09-08T10:06:32;14;13;
42410;PMS5003;28056;51.112;0.984;2023-09-08T10:09:02;17;17;
42410;PMS5003;28056;51.112;0.984;2023-09-08T10:11:33;13;13;
42410;PMS5003;28056;51.112;0.984;2023-09-08T10:14:04;14;14;
42410;PMS5003;28056;51.112;0.984;2023-09-08T10:16:34;19;19;
42410;PMS5003;28056;51.112;0.984;2023-09-08T10:19:02;15;15;
42410;PMS5003;28056;51.112;0.984;2023-09-08T10:21:36;17;15;
42410;PMS5003;28056;51.112;0.984;2023-09-08T10:24:09;15;15;
42410;PMS5003;28056;51.112;0.984;2023-09-08T10:26:43;13;13;
42410;PMS5003;28056;51.112;0.984;2023-09-08T10:29:17;15;15;
42410;PMS5003;28056;51.112;0.984;2023-09-08T10:31:44;27;27;
42410;PMS5003;28056;51.112;0.984;2023-09-08T10:34:12;12;12;
42410;PMS5003;28056;51.112;0.984;2023-09-08T10:36:40;13;13;
42410;PMS5003;28056;51.112;0.984;2023-09-08T10:39:39;12;11;
42410;PMS5003;28056;51.112;0.984;2023-09-08T10:42:23;13;13;
42410;PMS5003;28056;51.112;0.984;2023-09-08T10:44:55;14;12;
42410;PMS5003;28056;51.112;0.984;2023-09-08T10:47:24;17;17;
42410;PMS5003;28056;51.112;0.984;2023-09-08T10:49:52;13;13;
42410;PMS5003;28056;51.112;0.984;2023-09-08T10:52:21;12;12;
42410;PMS5003;28056;51.112;0.984;2023-09-08T10:54:50;15;15;
42410;PMS5003;28056;51.112;0.984;2023-09-08T10:57:18;15;15;
42410;PMS5003;28056;51.112;0.984;2023-09-08T10:59:51;15;13;
42410;PMS5003;28056;51.112;0.984;2023-09-08T11:02:36;14;13;
42410;PMS5003;28056;51.112;0.984;2023-09-08T11:05:06;14;14;
42410;PMS5003;28056;51.112;0.984;2023-09-08T11:07:35;15;13;
42410;PMS5003;28056;51.112;0.984;2023-09-08T11:10:03;12;12;
42410;PMS5003;28056;51.112;0.984;2023-09-08T11:12:31;13;11;
42410;PMS5003;28056;51.112;0.984;2023-09-08T11:14:59;14;13;
42410;PMS5003;28056;51.112;0.984;2023-09-08T11:17:28;11;11;
42410;PMS5003;28056;51.112;0.984;2023-09-08T11:19:55;13;11;
42410;PMS5003;28056;51.112;0.984;2023-09-08T11:22:23;14;14;
42410;PMS5003;28056;51.112;0.984;2023-09-08T11:24:52;11;11;
42410;PMS5003;28056;51.112;0.984;2023-09-08T11:27:20;14;12;
42410;PMS5003;28056;51.112;0.984;2023-09-08T11:29:48;14;14;
42410;PMS5003;28056;51.112;0.984;2023-09-08T11:32:16;12;12;
42410;PMS5003;28056;51.112;0.984;2023-09-08T11:34:43;13;13;
42410;PMS5003;28056;51.112;0.984;2023-09-08T11:37:11;18;16;
42410;PMS5003;28056;51.112;0.984;2023-09-08T11:39:40;13;13;
42410;PMS5003;28056;51.112;0.984;2023-09-08T11:42:08;13;13;
42410;PMS5003;28056;51.112;0.984;2023-09-08T11:44:38;18;15;
42410;PMS5003;28056;51.112;0.984;2023-09-08T11:47:07;14;14;
42410;PMS5003;28056;51.112;0.984;2023-09-08T11:49:37;16;16;
42410;PMS5003;28056;51.112;0.984;2023-09-08T11:52:08;16;14;
42410;PMS5003;28056;51.112;0.984;2023-09-08T11:54:35;14;14;
42410;PMS5003;28056;51.112;0.984;2023-09-08T11:57:04;14;13;
42410;PMS5003;28056;51.112;0.984;2023-09-08T11:59:32;15;13;
42410;PMS5003;28056;51.112;0.984;2023-09-08T12:02:00;15;15;
42410;PMS5003;28056;51.112;0.984;2023-09-08T12:04:28;15;15;
42410;PMS5003;28056;51.112;0.984;2023-09-08T12:06:55;14;14;
42410;PMS5003;28056;51.112;0.984;2023-09-08T12:09:23;13;13;
42410;PMS5003;28056;51.112;0.984;2023-09-08T12:11:50;16;15;
42410;PMS5003;28056;51.112;0.984;2023-09-08T12:14:17;12;12;
42410;PMS5003;28056;51.112;0.984;2023-09-08T12:16:44;13;11;
42410;PMS5003;28056;51.112;0.984;2023-09-08T12:19:43;16;15;
42410;PMS5003;28056;51.112;0.984;2023-09-08T12:22:10;16;14;
42410;PMS5003;28056;51.112;0.984;2023-09-08T12:25:10;13;12;
42410;PMS5003;28056;51.112;0.984;2023-09-08T12:27:38;12;12;
42410;PMS5003;28056;51.112;0.984;2023-09-08T12:30:06;14;14;
42410;PMS5003;28056;51.112;0.984;2023-09-08T12:32:33;14;13;
42410;PMS5003;28056;51.112;0.984;2023-09-08T12:35:01;13;13;
42410;PMS5003;28056;51.112;0.984;2023-09-08T12:37:29;11;11;
42410;PMS5003;28056;51.112;0.984;2023-09-08T12:39:59;12;11;
42410;PMS5003;28056;51.112;0.984;2023-09-08T12:42:26;12;12;
42410;PMS5003;28056;51.112;0.984;2023-09-08T12:44:53;12;12;
42410;PMS5003;28056;51.112;0.984;2023-09-08T12:47:20;12;12;
42410;PMS5003;28056;51.112;0.984;2023-09-08T12:49:48;13;12;
42410;PMS5003;28056;51.112;0.984;2023-09-08T12:52:15;12;12;
42410;PMS5003;28056;51.112;0.984;2023-09-08T12:54:42;13;11;
42410;PMS5003;28056;51.112;0.984;2023-09-08T12:57:09;11;11;
42410;PMS5003;28056;51.112;0.984;2023-09-08T12:59:37;15;12;
42410;PMS5003;28056;51.112;0.984;2023-09-08T13:02:04;12;12;
42410;PMS5003;28056;51.112;0.984;2023-09-08T13:04:31;12;11;
42410;PMS5003;28056;51.112;0.984;2023-09-08T13:06:59;13;13;
42410;PMS5003;28056;51.112;0.984;2023-09-08T13:09:26;12;12;
42410;PMS5003;28056;51.112;0.984;2023-09-08T13:11:53;10;10;
42410;PMS5003;28056;51.112;0.984;2023-09-08T13:14:20;11;11;
42410;PMS5003;28056;51.112;0.984;2023-09-08T13:16:48;13;13;
42410;PMS5003;28056;51.112;0.984;2023-09-08T13:19:15;13;13;
42410;PMS5003;28056;51.112;0.984;2023-09-08T13:21:42;15;15;
42410;PMS5003;28056;51.112;0.984;2023-09-08T13:24:10;13;13;
42410;PMS5003;28056;51.112;0.984;2023-09-08T13:26:37;17;14;
42410;PMS5003;28056;51.112;0.984;2023-09-08T13:29:04;15;15;
42410;PMS5003;28056;51.112;0.984;2023-09-08T13:31:31;14;14;
42410;PMS5003;28056;51.112;0.984;2023-09-08T13:33:59;16;16;
42410;PMS5003;28056;51.112;0.984;2023-09-08T13:36:26;13;13;
42410;PMS5003;28056;51.112;0.984;2023-09-08T13:38:53;12;12;
42410;PMS5003;28056;51.112;0.984;2023-09-08T13:41:21;14;14;
42410;PMS5003;28056;51.112;0.984;2023-09-08T13:43:48;15;15;
42410;PMS5003;28056;51.112;0.984;2023-09-08T13:46:16;15;15;
42410;PMS5003;28056;51.112;0.984;2023-09-08T13:48:44;14;14;
42410;PMS5003;28056;51.112;0.984;2023-09-08T13:51:11;12;12;
42410;PMS5003;28056;51.112;0.984;2023-09-08T13:53:38;14;13;
42410;PMS5003;28056;51.112;0.984;2023-09-08T13:56:06;12;12;
42410;PMS5003;28056;51.112;0.984;2023-09-08T13:58:33;13;13;
42410;PMS5003;28056;51.112;0.984;2023-09-08T14:01:00;15;15;
42410;PMS5003;28056;51.112;0.984;2023-09-08T14:03:28;15;13;
42410;PMS5003;28056;51.112;0.984;2023-09-08T14:05:56;15;13;
42410;PMS5003;28056;51.112;0.984;2023-09-08T14:08:23;15;15;
42410;PMS5003;28056;51.112;0.984;2023-09-08T14:10:51;14;13;
42410;PMS5003;28056;51.112;0.984;2023-09-08T14:13:19;15;13;
42410;PMS5003;28056;51.112;0.984;2023-09-08T14:15:47;13;13;
42410;PMS5003;28056;51.112;0.984;2023-09-08T14:18:14;16;16;
42410;PMS5003;28056;51.112;0.984;2023-09-08T14:20:42;14;13;
42410;PMS5003;28056;51.112;0.984;2023-09-08T14:23:10;14;14;
42410;PMS5003;28056;51.112;0.984;2023-09-08T14:25:37;14;13;
42410;PMS5003;28056;51.112;0.984;2023-09-08T14:28:05;15;14;
42410;PMS5003;28056;51.112;0.984;2023-09-08T14:30:32;14;14;
42410;PMS5003;28056;51.112;0.984;2023-09-08T14:33:00;14;14;
42410;PMS5003;28056;51.112;0.984;2023-09-08T14:35:27;13;13;
42410;PMS5003;28056;51.112;0.984;2023-09-08T14:37:54;14;14;
42410;PMS5003;28056;51.112;0.984;2023-09-08T14:40:22;13;13;
42410;PMS5003;28056;51.112;0.984;2023-09-08T14:42:49;15;15;
42410;PMS5003;28056;51.112;0.984;2023-09-08T14:45:16;14;14;
42410;PMS5003;28056;51.112;0.984;2023-09-08T14:47:43;13;13;
42410;PMS5003;28056;51.112;0.984;2023-09-08T14:50:11;13;13;
42410;PMS5003;28056;51.112;0.984;2023-09-08T14:52:39;13;12;
42410;PMS5003;28056;51.112;0.984;2023-09-08T14:55:06;14;13;
42410;PMS5003;28056;51.112;0.984;2023-09-08T14:57:34;14;14;
42410;PMS5003;28056;51.112;0.984;2023-09-08T15:00:02;12;11;
42410;PMS5003;28056;51.112;0.984;2023-09-08T15:02:30;12;12;
42410;PMS5003;28056;51.112;0.984;2023-09-08T15:04:58;13;12;
42410;PMS5003;28056;51.112;0.984;2023-09-08T15:07:25;10;10;
42410;PMS5003;28056;51.112;0.984;2023-09-08T15:09:52;15;13;
42410;PMS5003;28056;51.112;0.984;2023-09-08T15:12:19;14;14;
42410;PMS5003;28056;51.112;0.984;2023-09-08T15:14:47;13;12;
42410;PMS5003;28056;51.112;0.984;2023-09-08T15:17:14;12;12;
42410;PMS5003;28056;51.112;0.984;2023-09-08T15:19:41;14;14;
42410;PMS5003;28056;51.112;0.984;2023-09-08T15:22:08;15;13;
42410;PMS5003;28056;51.112;0.984;2023-09-08T15:24:36;16;15;
42410;PMS5003;28056;51.112;0.984;2023-09-08T15:27:03;14;14;
42410;PMS5003;28056;51.112;0.984;2023-09-08T15:29:30;12;12;
42410;PMS5003;28056;51.112;0.984;2023-09-08T15:31:58;13;13;
42410;PMS5003;28056;51.112;0.984;2023-09-08T15:34:25;15;15;
42410;PMS5003;28056;51.112;0.984;2023-09-08T15:36:52;14;14;
42410;PMS5003;28056;51.112;0.984;2023-09-08T15:39:20;15;15;
42410;PMS5003;28056;51.112;0.984;2023-09-08T15:41:47;13;13;
42410;PMS5003;28056;51.112;0.984;2023-09-08T15:44:15;13;13;
42410;PMS5003;28056;51.112;0.984;2023-09-08T15:46:42;13;13;
42410;PMS5003;28056;51.112;0.984;2023-09-08T15:49:09;14;14;
42410;PMS5003;28056;51.112;0.984;2023-09-08T15:51:37;15;12;
42410;PMS5003;28056;51.112;0.984;2023-09-08T15:54:04;13;13;
42410;PMS5003;28056;51.112;0.984;2023-09-08T15:56:31;12;12;
42410;PMS5003;28056;51.112;0.984;2023-09-08T15:58:58;14;14;
42410;PMS5003;28056;51.112;0.984;2023-09-08T16:01:26;14;14;
42410;PMS5003;28056;51.112;0.984;2023-09-08T16:03:53;18;15;
42410;PMS5003;28056;51.112;0.984;2023-09-08T16:06:20;16;14;
42410;PMS5003;28056;51.112;0.984;2023-09-08T16:08:48;14;13;
42410;PMS5003;28056;51.112;0.984;2023-09-08T16:11:15;11;11;
42410;PMS5003;28056;51.112;0.984;2023-09-08T16:13:42;13;13;
42410;PMS5003;28056;51.112;0.984;2023-09-08T16:16:09;13;13;
42410;PMS5003;28056;51.112;0.984;2023-09-08T16:18:37;10;10;
42410;PMS5003;28056;51.112;0.984;2023-09-08T16:21:04;13;13;
42410;PMS5003;28056;51.112;0.984;2023-09-08T16:23:31;15;14;
42410;PMS5003;28056;51.112;0.984;2023-09-08T16:25:59;13;12;